sensor_id;sensor_type;location;lat;lon;timestamp;P1;durP1;ratioP1;P2;durP2;ratioP2
37164;SDS011;23057;48.554;14.454;2022-10-17T00:00:50;1.73;;;1.08;;
37164;SDS011;23057;48.554;14.454;2022-10-17T00:03:21;1.38;;;0.98;;
37164;SDS011;23057;48.554;14.454;2022-10-17T00:05:52;1.52;;;1.10;;
37164;SDS011;23057;48.554;14.454;2022-10-17T00:08:23;3.38;;;1.30;;
37164;SDS011;23057;48.554;14.454;2022-10-17T00:10:58;2.33;;;0.90;;
37164;SDS011;23057;48.554;14.454;2022-10-17T00:13:34;1.00;;;0.90;;
37164;SDS011;23057;48.554;14.454;2022-10-17T00:16:05;5.65;;;1.15;;
37164;SDS011;23057;48.554;14.454;2022-10-17T00:18:37;1.17;;;0.80;;
37164;SDS011;23057;48.554;14.454;2022-10-17T00:21:15;1.35;;;1.05;;
37164;SDS011;23057;48.554;14.454;2022-10-17T00:23:48;1.15;;;1.00;;
37164;SDS011;23057;48.554;14.454;2022-10-17T00:26:20;2.25;;;0.95;;
37164;SDS011;23057;48.554;14.454;2022-10-17T00:28:52;2.28;;;1.20;;
37164;SDS011;23057;48.554;14.454;2022-10-17T00:31:23;2.60;;;1.00;;
37164;SDS011;23057;48.554;14.454;2022-10-17T00:33:54;1.30;;;0.98;;
37164;SDS011;23057;48.554;14.454;2022-10-17T00:36:25;1.70;;;1.00;;
37164;SDS011;23057;48.554;14.454;2022-10-17T00:38:57;2.80;;;1.02;;
37164;SDS011;23057;48.554;14.454;2022-10-17T00:41:30;1.15;;;0.88;;
37164;SDS011;23057;48.554;14.454;2022-10-17T00:44:04;0.85;;;0.75;;
37164;SDS011;23057;48.554;14.454;2022-10-17T00:47:07;1.75;;;1.33;;
37164;SDS011;23057;48.554;14.454;2022-10-17T00:49:44;3.75;;;2.92;;
37164;SDS011;23057;48.554;14.454;2022-10-17T00:52:19;3.47;;;2.25;;
37164;SDS011;23057;48.554;14.454;2022-10-17T00:55:02;3.13;;;2.00;;
37164;SDS011;23057;48.554;14.454;2022-10-17T00:57:52;3.33;;;1.60;;
37164;SDS011;23057;48.554;14.454;2022-10-17T01:00:24;1.48;;;1.23;;
37164;SDS011;23057;48.554;14.454;2022-10-17T01:02:55;2.08;;;1.58;;
37164;SDS011;23057;48.554;14.454;2022-10-17T01:05:26;2.30;;;1.35;;
37164;SDS011;23057;48.554;14.454;2022-10-17T01:07:58;4.30;;;1.33;;
37164;SDS011;23057;48.554;14.454;2022-10-17T01:10:32;3.25;;;1.23;;
37164;SDS011;23057;48.554;14.454;2022-10-17T01:26:35;3.85;;;1.00;;
37164;SDS011;23057;48.554;14.454;2022-10-17T01:29:49;1.33;;;0.90;;
37164;SDS011;23057;48.554;14.454;2022-10-17T01:32:58;5.32;;;1.25;;
37164;SDS011;23057;48.554;14.454;2022-10-17T01:35:51;7.22;;;1.20;;
37164;SDS011;23057;48.554;14.454;2022-10-17T01:41:26;1.00;;;0.90;;
37164;SDS011;23057;48.554;14.454;2022-10-17T01:44:38;2.53;;;1.15;;
37164;SDS011;23057;48.554;14.454;2022-10-17T01:47:32;4.70;;;1.08;;
37164;SDS011;23057;48.554;14.454;2022-10-17T01:50:05;25.00;;;1.45;;
37164;SDS011;23057;48.554;14.454;2022-10-17T01:52:51;8.98;;;0.88;;
37164;SDS011;23057;48.554;14.454;2022-10-17T01:55:58;3.13;;;0.77;;
37164;SDS011;23057;48.554;14.454;2022-10-17T01:58:40;4.88;;;1.10;;
37164;SDS011;23057;48.554;14.454;2022-10-17T02:01:22;1.45;;;0.95;;
37164;SDS011;23057;48.554;14.454;2022-10-17T02:03:59;0.75;;;0.70;;
37164;SDS011;23057;48.554;14.454;2022-10-17T02:06:34;1.17;;;0.90;;
37164;SDS011;23057;48.554;14.454;2022-10-17T02:09:40;1.00;;;0.80;;
37164;SDS011;23057;48.554;14.454;2022-10-17T02:15:44;1.25;;;0.93;;
37164;SDS011;23057;48.554;14.454;2022-10-17T02:22:24;1.02;;;0.80;;
37164;SDS011;23057;48.554;14.454;2022-10-17T02:28:48;1.10;;;0.90;;
37164;SDS011;23057;48.554;14.454;2022-10-17T02:32:03;2.87;;;0.67;;
37164;SDS011;23057;48.554;14.454;2022-10-17T02:34:47;1.17;;;0.88;;
37164;SDS011;23057;48.554;14.454;2022-10-17T02:37:26;0.98;;;0.80;;
37164;SDS011;23057;48.554;14.454;2022-10-17T02:40:01;3.15;;;1.10;;
37164;SDS011;23057;48.554;14.454;2022-10-17T02:42:37;1.35;;;1.00;;
37164;SDS011;23057;48.554;14.454;2022-10-17T02:45:11;8.60;;;1.20;;
37164;SDS011;23057;48.554;14.454;2022-10-17T02:53:24;1.58;;;1.10;;
37164;SDS011;23057;48.554;14.454;2022-10-17T02:56:18;4.00;;;1.05;;
37164;SDS011;23057;48.554;14.454;2022-10-17T02:58:53;2.90;;;1.17;;
37164;SDS011;23057;48.554;14.454;2022-10-17T03:01:29;3.72;;;1.30;;
37164;SDS011;23057;48.554;14.454;2022-10-17T03:04:06;3.20;;;1.17;;
37164;SDS011;23057;48.554;14.454;2022-10-17T03:06:42;3.50;;;1.00;;
37164;SDS011;23057;48.554;14.454;2022-10-17T03:09:17;2.72;;;1.00;;
37164;SDS011;23057;48.554;14.454;2022-10-17T03:11:47;1.02;;;0.90;;
37164;SDS011;23057;48.554;14.454;2022-10-17T03:14:18;0.95;;;0.85;;
37164;SDS011;23057;48.554;14.454;2022-10-17T03:16:49;3.92;;;1.02;;
37164;SDS011;23057;48.554;14.454;2022-10-17T03:19:20;4.68;;;0.98;;
37164;SDS011;23057;48.554;14.454;2022-10-17T03:21:51;7.10;;;1.13;;
37164;SDS011;23057;48.554;14.454;2022-10-17T03:24:22;1.20;;;0.80;;
37164;SDS011;23057;48.554;14.454;2022-10-17T03:26:53;1.08;;;0.90;;
37164;SDS011;23057;48.554;14.454;2022-10-17T03:29:24;2.58;;;1.02;;
37164;SDS011;23057;48.554;14.454;2022-10-17T03:31:54;0.95;;;0.82;;
37164;SDS011;23057;48.554;14.454;2022-10-17T03:34:25;2.88;;;0.90;;
37164;SDS011;23057;48.554;14.454;2022-10-17T03:36:56;2.00;;;1.13;;
37164;SDS011;23057;48.554;14.454;2022-10-17T03:39:27;2.83;;;1.42;;
37164;SDS011;23057;48.554;14.454;2022-10-17T03:41:58;2.05;;;1.52;;
37164;SDS011;23057;48.554;14.454;2022-10-17T03:44:29;11.63;;;5.70;;
37164;SDS011;23057;48.554;14.454;2022-10-17T03:47:00;17.38;;;5.75;;
37164;SDS011;23057;48.554;14.454;2022-10-17T03:49:31;3.97;;;2.35;;
37164;SDS011;23057;48.554;14.454;2022-10-17T03:52:01;3.30;;;1.75;;
37164;SDS011;23057;48.554;14.454;2022-10-17T03:54:33;5.80;;;1.58;;
37164;SDS011;23057;48.554;14.454;2022-10-17T03:57:03;3.47;;;1.30;;
37164;SDS011;23057;48.554;14.454;2022-10-17T03:59:34;3.22;;;1.77;;
37164;SDS011;23057;48.554;14.454;2022-10-17T04:02:05;2.00;;;1.15;;
37164;SDS011;23057;48.554;14.454;2022-10-17T04:04:36;2.80;;;0.90;;
37164;SDS011;23057;48.554;14.454;2022-10-17T04:07:07;1.45;;;0.95;;
37164;SDS011;23057;48.554;14.454;2022-10-17T04:09:38;4.50;;;0.90;;
37164;SDS011;23057;48.554;14.454;2022-10-17T04:12:09;3.72;;;1.20;;
37164;SDS011;23057;48.554;14.454;2022-10-17T04:14:40;8.80;;;1.27;;
37164;SDS011;23057;48.554;14.454;2022-10-17T04:17:10;5.13;;;1.10;;
37164;SDS011;23057;48.554;14.454;2022-10-17T04:19:41;4.85;;;1.23;;
37164;SDS011;23057;48.554;14.454;2022-10-17T04:22:12;2.28;;;1.40;;
37164;SDS011;23057;48.554;14.454;2022-10-17T04:24:43;5.10;;;2.47;;
37164;SDS011;23057;48.554;14.454;2022-10-17T04:27:14;3.35;;;1.83;;
37164;SDS011;23057;48.554;14.454;2022-10-17T04:29:45;2.08;;;1.40;;
37164;SDS011;23057;48.554;14.454;2022-10-17T04:32:16;2.13;;;1.40;;
37164;SDS011;23057;48.554;14.454;2022-10-17T04:34:47;17.02;;;1.73;;
37164;SDS011;23057;48.554;14.454;2022-10-17T04:37:19;1.63;;;1.30;;
37164;SDS011;23057;48.554;14.454;2022-10-17T04:39:49;1.30;;;0.82;;
37164;SDS011;23057;48.554;14.454;2022-10-17T04:42:20;4.40;;;0.90;;
37164;SDS011;23057;48.554;14.454;2022-10-17T04:44:51;2.80;;;1.00;;
37164;SDS011;23057;48.554;14.454;2022-10-17T04:47:22;1.48;;;0.95;;
37164;SDS011;23057;48.554;14.454;2022-10-17T04:49:53;1.13;;;1.00;;
37164;SDS011;23057;48.554;14.454;2022-10-17T04:52:24;1.88;;;1.20;;
37164;SDS011;23057;48.554;14.454;2022-10-17T04:54:55;7.03;;;1.83;;
37164;SDS011;23057;48.554;14.454;2022-10-17T04:57:26;4.50;;;0.88;;
37164;SDS011;23057;48.554;14.454;2022-10-17T04:59:57;2.50;;;1.13;;
37164;SDS011;23057;48.554;14.454;2022-10-17T05:02:28;2.80;;;1.00;;
37164;SDS011;23057;48.554;14.454;2022-10-17T05:04:58;1.27;;;1.02;;
37164;SDS011;23057;48.554;14.454;2022-10-17T05:07:29;1.40;;;0.90;;
37164;SDS011;23057;48.554;14.454;2022-10-17T05:10:00;1.73;;;1.23;;
37164;SDS011;23057;48.554;14.454;2022-10-17T05:12:31;1.63;;;1.10;;
37164;SDS011;23057;48.554;14.454;2022-10-17T05:15:02;3.80;;;1.10;;
37164;SDS011;23057;48.554;14.454;2022-10-17T05:17:34;3.42;;;1.08;;
37164;SDS011;23057;48.554;14.454;2022-10-17T05:20:05;2.13;;;1.20;;
37164;SDS011;23057;48.554;14.454;2022-10-17T05:22:37;2.22;;;1.02;;
37164;SDS011;23057;48.554;14.454;2022-10-17T05:25:08;4.03;;;1.30;;
37164;SDS011;23057;48.554;14.454;2022-10-17T05:27:39;1.60;;;0.98;;
37164;SDS011;23057;48.554;14.454;2022-10-17T05:30:10;2.55;;;2.28;;
37164;SDS011;23057;48.554;14.454;2022-10-17T05:32:41;0.90;;;0.80;;
37164;SDS011;23057;48.554;14.454;2022-10-17T05:35:12;2.20;;;1.20;;
37164;SDS011;23057;48.554;14.454;2022-10-17T05:37:43;1.92;;;1.02;;
37164;SDS011;23057;48.554;14.454;2022-10-17T05:40:14;3.47;;;0.90;;
37164;SDS011;23057;48.554;14.454;2022-10-17T05:42:48;1.95;;;1.00;;
37164;SDS011;23057;48.554;14.454;2022-10-17T05:45:19;1.70;;;1.13;;
37164;SDS011;23057;48.554;14.454;2022-10-17T05:47:50;1.48;;;0.90;;
37164;SDS011;23057;48.554;14.454;2022-10-17T05:50:21;2.08;;;1.23;;
37164;SDS011;23057;48.554;14.454;2022-10-17T05:52:53;6.30;;;1.40;;
37164;SDS011;23057;48.554;14.454;2022-10-17T05:55:24;1.48;;;1.38;;
37164;SDS011;23057;48.554;14.454;2022-10-17T05:57:55;3.63;;;1.38;;
37164;SDS011;23057;48.554;14.454;2022-10-17T06:00:29;1.27;;;1.08;;
37164;SDS011;23057;48.554;14.454;2022-10-17T06:03:00;1.73;;;1.05;;
37164;SDS011;23057;48.554;14.454;2022-10-17T06:05:30;1.48;;;1.13;;
37164;SDS011;23057;48.554;14.454;2022-10-17T06:08:04;1.33;;;1.20;;
37164;SDS011;23057;48.554;14.454;2022-10-17T06:10:35;2.63;;;1.00;;
37164;SDS011;23057;48.554;14.454;2022-10-17T06:13:07;4.43;;;1.20;;
37164;SDS011;23057;48.554;14.454;2022-10-17T06:15:38;1.48;;;1.00;;
37164;SDS011;23057;48.554;14.454;2022-10-17T06:18:09;1.17;;;0.80;;
37164;SDS011;23057;48.554;14.454;2022-10-17T06:20:41;2.45;;;1.10;;
37164;SDS011;23057;48.554;14.454;2022-10-17T06:23:12;1.52;;;1.02;;
37164;SDS011;23057;48.554;14.454;2022-10-17T06:25:43;4.63;;;0.90;;
37164;SDS011;23057;48.554;14.454;2022-10-17T06:28:14;4.95;;;0.85;;
37164;SDS011;23057;48.554;14.454;2022-10-17T06:30:44;2.05;;;1.20;;
37164;SDS011;23057;48.554;14.454;2022-10-17T06:33:15;2.63;;;1.70;;
37164;SDS011;23057;48.554;14.454;2022-10-17T06:35:50;1.52;;;1.20;;
37164;SDS011;23057;48.554;14.454;2022-10-17T06:38:23;4.85;;;1.20;;
37164;SDS011;23057;48.554;14.454;2022-10-17T06:40:54;2.72;;;0.85;;
37164;SDS011;23057;48.554;14.454;2022-10-17T06:43:37;1.92;;;1.00;;
37164;SDS011;23057;48.554;14.454;2022-10-17T06:46:12;2.72;;;0.90;;
37164;SDS011;23057;48.554;14.454;2022-10-17T06:48:47;2.05;;;0.95;;
37164;SDS011;23057;48.554;14.454;2022-10-17T06:51:18;2.92;;;1.00;;
37164;SDS011;23057;48.554;14.454;2022-10-17T06:53:48;3.60;;;1.00;;
37164;SDS011;23057;48.554;14.454;2022-10-17T06:56:19;1.77;;;1.13;;
37164;SDS011;23057;48.554;14.454;2022-10-17T06:58:50;3.08;;;1.05;;
37164;SDS011;23057;48.554;14.454;2022-10-17T07:01:21;3.25;;;1.10;;
37164;SDS011;23057;48.554;14.454;2022-10-17T07:03:52;1.30;;;1.10;;
37164;SDS011;23057;48.554;14.454;2022-10-17T07:06:23;2.15;;;1.20;;
37164;SDS011;23057;48.554;14.454;2022-10-17T07:08:54;1.50;;;0.88;;
37164;SDS011;23057;48.554;14.454;2022-10-17T07:11:25;1.08;;;0.75;;
37164;SDS011;23057;48.554;14.454;2022-10-17T07:13:56;2.45;;;0.90;;
37164;SDS011;23057;48.554;14.454;2022-10-17T07:16:27;1.90;;;1.08;;
37164;SDS011;23057;48.554;14.454;2022-10-17T07:18:58;1.20;;;0.90;;
37164;SDS011;23057;48.554;14.454;2022-10-17T07:21:29;1.77;;;1.08;;
37164;SDS011;23057;48.554;14.454;2022-10-17T07:24:00;2.75;;;1.27;;
37164;SDS011;23057;48.554;14.454;2022-10-17T07:26:31;4.50;;;1.10;;
37164;SDS011;23057;48.554;14.454;2022-10-17T07:29:02;3.72;;;1.20;;
37164;SDS011;23057;48.554;14.454;2022-10-17T07:31:35;4.82;;;0.93;;
37164;SDS011;23057;48.554;14.454;2022-10-17T07:34:06;1.90;;;1.10;;
37164;SDS011;23057;48.554;14.454;2022-10-17T07:36:37;2.67;;;1.00;;
37164;SDS011;23057;48.554;14.454;2022-10-17T07:39:08;1.48;;;1.08;;
37164;SDS011;23057;48.554;14.454;2022-10-17T07:41:39;1.75;;;0.93;;
37164;SDS011;23057;48.554;14.454;2022-10-17T07:44:10;1.98;;;0.98;;
37164;SDS011;23057;48.554;14.454;2022-10-17T07:46:40;2.20;;;1.13;;
37164;SDS011;23057;48.554;14.454;2022-10-17T07:49:11;4.13;;;1.02;;
37164;SDS011;23057;48.554;14.454;2022-10-17T07:51:42;3.58;;;1.00;;
37164;SDS011;23057;48.554;14.454;2022-10-17T07:54:13;2.05;;;1.38;;
37164;SDS011;23057;48.554;14.454;2022-10-17T07:56:44;1.73;;;0.90;;
37164;SDS011;23057;48.554;14.454;2022-10-17T07:59:19;1.10;;;0.82;;
37164;SDS011;23057;48.554;14.454;2022-10-17T08:01:50;3.40;;;0.90;;
37164;SDS011;23057;48.554;14.454;2022-10-17T08:04:25;4.15;;;1.10;;
37164;SDS011;23057;48.554;14.454;2022-10-17T08:06:56;1.17;;;0.88;;
37164;SDS011;23057;48.554;14.454;2022-10-17T08:09:29;2.00;;;1.83;;
37164;SDS011;23057;48.554;14.454;2022-10-17T08:12:00;2.97;;;1.90;;
37164;SDS011;23057;48.554;14.454;2022-10-17T08:14:31;1.67;;;1.17;;
37164;SDS011;23057;48.554;14.454;2022-10-17T08:17:02;2.63;;;0.98;;
37164;SDS011;23057;48.554;14.454;2022-10-17T08:19:33;3.92;;;1.48;;
37164;SDS011;23057;48.554;14.454;2022-10-17T08:22:10;3.33;;;1.80;;
37164;SDS011;23057;48.554;14.454;2022-10-17T08:24:41;2.00;;;1.13;;
37164;SDS011;23057;48.554;14.454;2022-10-17T08:27:13;2.15;;;1.20;;
37164;SDS011;23057;48.554;14.454;2022-10-17T08:29:44;2.15;;;1.10;;
37164;SDS011;23057;48.554;14.454;2022-10-17T08:32:18;4.50;;;1.25;;
37164;SDS011;23057;48.554;14.454;2022-10-17T08:34:52;2.15;;;1.30;;
37164;SDS011;23057;48.554;14.454;2022-10-17T08:37:24;2.13;;;1.33;;
37164;SDS011;23057;48.554;14.454;2022-10-17T08:39:55;1.65;;;1.00;;
37164;SDS011;23057;48.554;14.454;2022-10-17T08:42:41;4.45;;;1.38;;
37164;SDS011;23057;48.554;14.454;2022-10-17T08:45:53;1.92;;;1.23;;
37164;SDS011;23057;48.554;14.454;2022-10-17T08:48:33;2.00;;;1.40;;
37164;SDS011;23057;48.554;14.454;2022-10-17T08:54:13;1.00;;;0.73;;
37164;SDS011;23057;48.554;14.454;2022-10-17T08:56:58;3.10;;;1.10;;
37164;SDS011;23057;48.554;14.454;2022-10-17T08:59:30;2.08;;;1.02;;
37164;SDS011;23057;48.554;14.454;2022-10-17T09:09:07;3.28;;;0.93;;
37164;SDS011;23057;48.554;14.454;2022-10-17T09:18:28;1.70;;;1.00;;
37164;SDS011;23057;48.554;14.454;2022-10-17T09:23:55;2.23;;;1.43;;
37164;SDS011;23057;48.554;14.454;2022-10-17T09:26:35;3.78;;;1.20;;
37164;SDS011;23057;48.554;14.454;2022-10-17T09:29:19;2.92;;;1.40;;
37164;SDS011;23057;48.554;14.454;2022-10-17T09:34:43;4.07;;;1.00;;
37164;SDS011;23057;48.554;14.454;2022-10-17T09:37:15;1.80;;;1.00;;
37164;SDS011;23057;48.554;14.454;2022-10-17T09:39:46;2.85;;;1.42;;
37164;SDS011;23057;48.554;14.454;2022-10-17T09:42:18;1.60;;;1.10;;
37164;SDS011;23057;48.554;14.454;2022-10-17T09:45:02;4.75;;;1.27;;
37164;SDS011;23057;48.554;14.454;2022-10-17T09:50:40;2.85;;;1.15;;
37164;SDS011;23057;48.554;14.454;2022-10-17T09:53:28;2.38;;;1.30;;
37164;SDS011;23057;48.554;14.454;2022-10-17T09:56:11;1.75;;;1.02;;
37164;SDS011;23057;48.554;14.454;2022-10-17T09:58:49;1.75;;;1.08;;
37164;SDS011;23057;48.554;14.454;2022-10-17T10:01:27;4.65;;;1.25;;
37164;SDS011;23057;48.554;14.454;2022-10-17T10:04:10;2.65;;;1.00;;
37164;SDS011;23057;48.554;14.454;2022-10-17T10:07:05;1.60;;;1.00;;
37164;SDS011;23057;48.554;14.454;2022-10-17T10:09:44;2.17;;;1.50;;
37164;SDS011;23057;48.554;14.454;2022-10-17T10:14:54;1.75;;;1.02;;
37164;SDS011;23057;48.554;14.454;2022-10-17T10:17:39;1.33;;;1.10;;
37164;SDS011;23057;48.554;14.454;2022-10-17T10:25:56;2.42;;;1.38;;
37164;SDS011;23057;48.554;14.454;2022-10-17T10:28:33;7.05;;;1.38;;
37164;SDS011;23057;48.554;14.454;2022-10-17T10:31:06;7.80;;;1.40;;
37164;SDS011;23057;48.554;14.454;2022-10-17T10:33:40;3.35;;;1.40;;
37164;SDS011;23057;48.554;14.454;2022-10-17T10:36:13;2.28;;;1.27;;
37164;SDS011;23057;48.554;14.454;2022-10-17T10:38:49;2.05;;;1.50;;
37164;SDS011;23057;48.554;14.454;2022-10-17T10:41:25;2.38;;;1.15;;
37164;SDS011;23057;48.554;14.454;2022-10-17T10:43:56;2.55;;;1.55;;
37164;SDS011;23057;48.554;14.454;2022-10-17T10:46:27;2.28;;;1.33;;
37164;SDS011;23057;48.554;14.454;2022-10-17T10:49:01;1.90;;;1.17;;
37164;SDS011;23057;48.554;14.454;2022-10-17T10:51:40;2.30;;;1.40;;
37164;SDS011;23057;48.554;14.454;2022-10-17T10:57:12;2.30;;;1.27;;
37164;SDS011;23057;48.554;14.454;2022-10-17T11:00:26;3.05;;;1.38;;
37164;SDS011;23057;48.554;14.454;2022-10-17T11:03:00;2.42;;;1.33;;
37164;SDS011;23057;48.554;14.454;2022-10-17T11:06:24;2.20;;;1.40;;
37164;SDS011;23057;48.554;14.454;2022-10-17T11:09:15;2.35;;;1.48;;
37164;SDS011;23057;48.554;14.454;2022-10-17T11:12:21;2.13;;;1.40;;
37164;SDS011;23057;48.554;14.454;2022-10-17T11:18:32;2.40;;;1.40;;
37164;SDS011;23057;48.554;14.454;2022-10-17T11:24:27;3.38;;;1.67;;
37164;SDS011;23057;48.554;14.454;2022-10-17T11:27:13;2.90;;;1.70;;
37164;SDS011;23057;48.554;14.454;2022-10-17T11:29:45;3.00;;;1.90;;
37164;SDS011;23057;48.554;14.454;2022-10-17T11:35:19;2.47;;;1.63;;
37164;SDS011;23057;48.554;14.454;2022-10-17T11:41:04;2.25;;;1.20;;
37164;SDS011;23057;48.554;14.454;2022-10-17T11:43:47;3.85;;;1.60;;
37164;SDS011;23057;48.554;14.454;2022-10-17T11:46:33;2.47;;;1.90;;
37164;SDS011;23057;48.554;14.454;2022-10-17T11:49:09;4.18;;;2.00;;
37164;SDS011;23057;48.554;14.454;2022-10-17T11:55:27;3.38;;;1.73;;
37164;SDS011;23057;48.554;14.454;2022-10-17T12:01:26;3.88;;;2.35;;
37164;SDS011;23057;48.554;14.454;2022-10-17T12:10:17;5.15;;;2.83;;
37164;SDS011;23057;48.554;14.454;2022-10-17T12:19:10;3.53;;;2.58;;
37164;SDS011;23057;48.554;14.454;2022-10-17T12:27:21;5.78;;;3.05;;
37164;SDS011;23057;48.554;14.454;2022-10-17T12:49:40;5.63;;;3.53;;
37164;SDS011;23057;48.554;14.454;2022-10-17T12:52:25;4.65;;;3.72;;
37164;SDS011;23057;48.554;14.454;2022-10-17T13:00:33;6.97;;;4.45;;
37164;SDS011;23057;48.554;14.454;2022-10-17T13:03:20;5.80;;;4.25;;
37164;SDS011;23057;48.554;14.454;2022-10-17T13:06:19;6.38;;;4.15;;
37164;SDS011;23057;48.554;14.454;2022-10-17T13:09:16;7.43;;;4.43;;
37164;SDS011;23057;48.554;14.454;2022-10-17T13:12:00;7.43;;;4.85;;
37164;SDS011;23057;48.554;14.454;2022-10-17T13:14:40;9.48;;;5.38;;
37164;SDS011;23057;48.554;14.454;2022-10-17T13:17:25;8.32;;;5.00;;
37164;SDS011;23057;48.554;14.454;2022-10-17T13:20:00;6.07;;;5.03;;
37164;SDS011;23057;48.554;14.454;2022-10-17T13:22:32;9.45;;;5.63;;
37164;SDS011;23057;48.554;14.454;2022-10-17T13:27:48;6.70;;;5.15;;
37164;SDS011;23057;48.554;14.454;2022-10-17T13:30:24;8.90;;;5.82;;
37164;SDS011;23057;48.554;14.454;2022-10-17T13:32:58;6.30;;;5.22;;
37164;SDS011;23057;48.554;14.454;2022-10-17T13:35:32;9.35;;;6.47;;
37164;SDS011;23057;48.554;14.454;2022-10-17T13:38:07;7.85;;;5.72;;
37164;SDS011;23057;48.554;14.454;2022-10-17T13:40:42;7.25;;;5.78;;
37164;SDS011;23057;48.554;14.454;2022-10-17T13:43:15;8.70;;;6.65;;
37164;SDS011;23057;48.554;14.454;2022-10-17T13:45:54;9.63;;;6.95;;
37164;SDS011;23057;48.554;14.454;2022-10-17T13:48:34;9.00;;;6.78;;
37164;SDS011;23057;48.554;14.454;2022-10-17T13:51:07;10.20;;;7.60;;
37164;SDS011;23057;48.554;14.454;2022-10-17T13:53:39;11.70;;;8.63;;
37164;SDS011;23057;48.554;14.454;2022-10-17T13:56:23;15.80;;;7.47;;
37164;SDS011;23057;48.554;14.454;2022-10-17T13:58:59;9.95;;;7.32;;
37164;SDS011;23057;48.554;14.454;2022-10-17T14:01:50;12.10;;;8.75;;
37164;SDS011;23057;48.554;14.454;2022-10-17T14:04:23;11.32;;;8.02;;
37164;SDS011;23057;48.554;14.454;2022-10-17T14:06:54;11.77;;;9.18;;
37164;SDS011;23057;48.554;14.454;2022-10-17T14:09:27;14.30;;;8.52;;
37164;SDS011;23057;48.554;14.454;2022-10-17T14:12:10;12.40;;;8.57;;
37164;SDS011;23057;48.554;14.454;2022-10-17T14:14:45;11.05;;;7.60;;
37164;SDS011;23057;48.554;14.454;2022-10-17T14:17:25;11.25;;;8.40;;
37164;SDS011;23057;48.554;14.454;2022-10-17T14:20:02;14.27;;;8.98;;
37164;SDS011;23057;48.554;14.454;2022-10-17T14:22:36;14.43;;;9.25;;
37164;SDS011;23057;48.554;14.454;2022-10-17T14:28:12;14.05;;;8.55;;
37164;SDS011;23057;48.554;14.454;2022-10-17T14:30:46;14.20;;;9.75;;
37164;SDS011;23057;48.554;14.454;2022-10-17T14:36:00;10.38;;;8.13;;
37164;SDS011;23057;48.554;14.454;2022-10-17T14:38:34;13.60;;;8.50;;
37164;SDS011;23057;48.554;14.454;2022-10-17T14:41:13;10.82;;;7.53;;
37164;SDS011;23057;48.554;14.454;2022-10-17T14:43:55;12.10;;;6.70;;
37164;SDS011;23057;48.554;14.454;2022-10-17T14:46:36;10.10;;;6.45;;
37164;SDS011;23057;48.554;14.454;2022-10-17T14:49:20;8.73;;;6.47;;
37164;SDS011;23057;48.554;14.454;2022-10-17T14:54:45;8.75;;;6.53;;
37164;SDS011;23057;48.554;14.454;2022-10-17T14:57:24;8.88;;;6.75;;
37164;SDS011;23057;48.554;14.454;2022-10-17T15:00:03;9.75;;;7.10;;
37164;SDS011;23057;48.554;14.454;2022-10-17T15:02:35;9.65;;;6.50;;
37164;SDS011;23057;48.554;14.454;2022-10-17T15:05:06;11.93;;;7.15;;
37164;SDS011;23057;48.554;14.454;2022-10-17T15:07:37;10.98;;;7.45;;
37164;SDS011;23057;48.554;14.454;2022-10-17T15:10:22;13.20;;;7.80;;
37164;SDS011;23057;48.554;14.454;2022-10-17T15:13:06;15.30;;;7.65;;
37164;SDS011;23057;48.554;14.454;2022-10-17T15:15:40;14.02;;;8.30;;
37164;SDS011;23057;48.554;14.454;2022-10-17T15:18:12;11.82;;;6.97;;
37164;SDS011;23057;48.554;14.454;2022-10-17T15:20:43;12.75;;;7.68;;
37164;SDS011;23057;48.554;14.454;2022-10-17T15:23:14;12.05;;;8.25;;
37164;SDS011;23057;48.554;14.454;2022-10-17T15:25:45;16.20;;;9.25;;
37164;SDS011;23057;48.554;14.454;2022-10-17T15:28:16;13.93;;;10.32;;
37164;SDS011;23057;48.554;14.454;2022-10-17T15:30:47;15.25;;;10.88;;
37164;SDS011;23057;48.554;14.454;2022-10-17T15:33:17;16.52;;;10.82;;
37164;SDS011;23057;48.554;14.454;2022-10-17T15:35:48;16.83;;;11.15;;
37164;SDS011;23057;48.554;14.454;2022-10-17T15:38:21;14.65;;;11.00;;
37164;SDS011;23057;48.554;14.454;2022-10-17T15:40:51;18.73;;;11.50;;
37164;SDS011;23057;48.554;14.454;2022-10-17T15:43:22;15.95;;;11.43;;
37164;SDS011;23057;48.554;14.454;2022-10-17T15:45:53;17.45;;;12.23;;
37164;SDS011;23057;48.554;14.454;2022-10-17T15:48:25;17.67;;;11.10;;
37164;SDS011;23057;48.554;14.454;2022-10-17T15:51:00;16.70;;;11.77;;
37164;SDS011;23057;48.554;14.454;2022-10-17T15:53:31;17.73;;;11.63;;
37164;SDS011;23057;48.554;14.454;2022-10-17T15:56:02;22.30;;;12.07;;
37164;SDS011;23057;48.554;14.454;2022-10-17T15:58:36;16.42;;;12.18;;
37164;SDS011;23057;48.554;14.454;2022-10-17T16:01:10;20.23;;;11.85;;
37164;SDS011;23057;48.554;14.454;2022-10-17T16:03:56;17.90;;;12.20;;
37164;SDS011;23057;48.554;14.454;2022-10-17T16:06:27;17.38;;;12.10;;
37164;SDS011;23057;48.554;14.454;2022-10-17T16:08:58;21.02;;;11.57;;
37164;SDS011;23057;48.554;14.454;2022-10-17T16:11:30;16.02;;;11.52;;
37164;SDS011;23057;48.554;14.454;2022-10-17T16:14:12;18.33;;;11.98;;
37164;SDS011;23057;48.554;14.454;2022-10-17T16:16:45;17.92;;;12.20;;
37164;SDS011;23057;48.554;14.454;2022-10-17T16:19:16;18.10;;;12.20;;
37164;SDS011;23057;48.554;14.454;2022-10-17T16:21:47;17.77;;;12.65;;
37164;SDS011;23057;48.554;14.454;2022-10-17T16:24:18;18.60;;;12.75;;
37164;SDS011;23057;48.554;14.454;2022-10-17T16:26:49;19.33;;;11.55;;
37164;SDS011;23057;48.554;14.454;2022-10-17T16:29:20;20.58;;;12.98;;
37164;SDS011;23057;48.554;14.454;2022-10-17T16:31:51;20.95;;;13.43;;
37164;SDS011;23057;48.554;14.454;2022-10-17T16:34:22;21.15;;;12.40;;
37164;SDS011;23057;48.554;14.454;2022-10-17T16:36:53;19.10;;;11.75;;
37164;SDS011;23057;48.554;14.454;2022-10-17T16:39:23;18.58;;;12.43;;
37164;SDS011;23057;48.554;14.454;2022-10-17T16:41:54;18.85;;;12.25;;
37164;SDS011;23057;48.554;14.454;2022-10-17T16:44:25;30.15;;;17.52;;
37164;SDS011;23057;48.554;14.454;2022-10-17T16:46:56;34.17;;;21.15;;
37164;SDS011;23057;48.554;14.454;2022-10-17T16:49:27;30.92;;;16.35;;
37164;SDS011;23057;48.554;14.454;2022-10-17T16:51:58;24.73;;;15.40;;
37164;SDS011;23057;48.554;14.454;2022-10-17T16:54:29;33.50;;;15.63;;
37164;SDS011;23057;48.554;14.454;2022-10-17T16:57:00;26.23;;;15.07;;
37164;SDS011;23057;48.554;14.454;2022-10-17T16:59:32;24.63;;;15.70;;
37164;SDS011;23057;48.554;14.454;2022-10-17T17:02:03;27.75;;;15.45;;
37164;SDS011;23057;48.554;14.454;2022-10-17T17:04:34;27.65;;;15.57;;
37164;SDS011;23057;48.554;14.454;2022-10-17T17:07:05;26.92;;;12.98;;
37164;SDS011;23057;48.554;14.454;2022-10-17T17:09:36;21.23;;;13.18;;
37164;SDS011;23057;48.554;14.454;2022-10-17T17:12:09;23.50;;;13.55;;
37164;SDS011;23057;48.554;14.454;2022-10-17T17:14:40;28.60;;;14.98;;
37164;SDS011;23057;48.554;14.454;2022-10-17T17:17:10;21.35;;;11.50;;
37164;SDS011;23057;48.554;14.454;2022-10-17T17:19:41;18.05;;;11.48;;
37164;SDS011;23057;48.554;14.454;2022-10-17T17:22:12;17.08;;;11.18;;
37164;SDS011;23057;48.554;14.454;2022-10-17T17:24:43;16.15;;;11.05;;
37164;SDS011;23057;48.554;14.454;2022-10-17T17:27:14;16.50;;;10.35;;
37164;SDS011;23057;48.554;14.454;2022-10-17T17:29:45;19.63;;;10.75;;
37164;SDS011;23057;48.554;14.454;2022-10-17T17:32:16;15.98;;;10.10;;
37164;SDS011;23057;48.554;14.454;2022-10-17T17:34:47;16.30;;;10.05;;
37164;SDS011;23057;48.554;14.454;2022-10-17T17:37:18;15.05;;;10.48;;
37164;SDS011;23057;48.554;14.454;2022-10-17T17:39:49;20.25;;;10.77;;